sensor_id;sensor_type;location;lat;lon;timestamp;pressure;altitude;pressure_sealevel;temperature;humidity
72925;BME280;61070;50.794;7.054;2023-04-09T00:02:09;101745.06;;;7.32;100.00
72925;BME280;61070;50.794;7.054;2023-04-09T00:04:34;101743.13;;;7.23;100.00
72925;BME280;61070;50.794;7.054;2023-04-09T00:06:59;101736.00;;;7.17;100.00
72925;BME280;61070;50.794;7.054;2023-04-09T00:09:25;101739.53;;;7.18;100.00
72925;BME280;61070;50.794;7.054;2023-04-09T00:11:50;101738.63;;;7.16;100.00
72925;BME280;61070;50.794;7.054;2023-04-09T00:14:15;101744.69;;;7.13;100.00
72925;BME280;61070;50.794;7.054;2023-04-09T00:16:40;101747.28;;;7.10;100.00
72925;BME280;61070;50.794;7.054;2023-04-09T00:19:06;101736.69;;;7.07;100.00
72925;BME280;61070;50.794;7.054;2023-04-09T00:21:31;101734.03;;;7.06;100.00
72925;BME280;61070;50.794;7.054;2023-04-09T00:23:57;101739.34;;;7.07;100.00
72925;BME280;61070;50.794;7.054;2023-04-09T00:26:22;101738.53;;;7.11;100.00
72925;BME280;61070;50.794;7.054;2023-04-09T00:28:47;101733.19;;;7.07;100.00
72925;BME280;61070;50.794;7.054;2023-04-09T00:31:13;101732.25;;;7.03;100.00
72925;BME280;61070;50.794;7.054;2023-04-09T00:33:38;101730.53;;;7.05;100.00
72925;BME280;61070;50.794;7.054;2023-04-09T00:36:03;101736.63;;;7.03;100.00
72925;BME280;61070;50.794;7.054;2023-04-09T00:38:29;101729.53;;;7.01;100.00
72925;BME280;61070;50.794;7.054;2023-04-09T00:40:54;101731.28;;;7.01;100.00
72925;BME280;61070;50.794;7.054;2023-04-09T00:43:20;101735.59;;;6.96;100.00
72925;BME280;61070;50.794;7.054;2023-04-09T00:45:46;101737.28;;;6.91;100.00
72925;BME280;61070;50.794;7.054;2023-04-09T00:48:13;101734.44;;;6.80;100.00
72925;BME280;61070;50.794;7.054;2023-04-09T00:50:41;101730.81;;;6.77;100.00
72925;BME280;61070;50.794;7.054;2023-04-09T00:53:06;101737.06;;;6.80;100.00
72925;BME280;61070;50.794;7.054;2023-04-09T00:55:32;101738.81;;;6.80;100.00
72925;BME280;61070;50.794;7.054;2023-04-09T00:57:58;101735.38;;;6.84;100.00
72925;BME280;61070;50.794;7.054;2023-04-09T01:00:23;101731.91;;;6.88;100.00
72925;BME280;61070;50.794;7.054;2023-04-09T01:02:48;101736.34;;;6.90;100.00
72925;BME280;61070;50.794;7.054;2023-04-09T01:05:16;101735.56;;;6.93;100.00
72925;BME280;61070;50.794;7.054;2023-04-09T01:08:03;101732.84;;;6.90;100.00
72925;BME280;61070;50.794;7.054;2023-04-09T01:10:57;101727.66;;;6.93;100.00
72925;BME280;61070;50.794;7.054;2023-04-09T01:13:30;101732.09;;;6.95;100.00
72925;BME280;61070;50.794;7.054;2023-04-09T01:16:00;101723.28;;;6.93;100.00
72925;BME280;61070;50.794;7.054;2023-04-09T01:18:34;101728.53;;;6.93;100.00
72925;BME280;61070;50.794;7.054;2023-04-09T01:21:12;101735.59;;;6.96;100.00
72925;BME280;61070;50.794;7.054;2023-04-09T01:28:55;101727.63;;;6.91;100.00
72925;BME280;61070;50.794;7.054;2023-04-09T01:31:27;101717.00;;;6.88;100.00
72925;BME280;61070;50.794;7.054;2023-04-09T01:33:54;101728.38;;;6.86;100.00
72925;BME280;61070;50.794;7.054;2023-04-09T01:36:20;101721.34;;;6.85;100.00
72925;BME280;61070;50.794;7.054;2023-04-09T01:38:47;101737.09;;;6.82;100.00
72925;BME280;61070;50.794;7.054;2023-04-09T01:41:16;101724.69;;;6.78;100.00
72925;BME280;61070;50.794;7.054;2023-04-09T01:43:42;101725.47;;;6.72;100.00
72925;BME280;61070;50.794;7.054;2023-04-09T01:46:09;101724.44;;;6.65;100.00
72925;BME280;61070;50.794;7.054;2023-04-09T01:48:35;101725.31;;;6.64;100.00
72925;BME280;61070;50.794;7.054;2023-04-09T01:51:01;101720.00;;;6.63;100.00
72925;BME280;61070;50.794;7.054;2023-04-09T01:53:27;101725.13;;;6.57;100.00
72925;BME280;61070;50.794;7.054;2023-04-09T01:55:53;101722.56;;;6.58;100.00
72925;BME280;61070;50.794;7.054;2023-04-09T01:58:20;101711.97;;;6.57;100.00
72925;BME280;61070;50.794;7.054;2023-04-09T02:00:47;101725.09;;;6.54;100.00
72925;BME280;61070;50.794;7.054;2023-04-09T02:05:45;101714.44;;;6.48;100.00
72925;BME280;61070;50.794;7.054;2023-04-09T02:08:18;101718.81;;;6.47;100.00
72925;BME280;61070;50.794;7.054;2023-04-09T02:10:48;101716.22;;;6.49;100.00
72925;BME280;61070;50.794;7.054;2023-04-09T02:13:18;101716.28;;;6.52;100.00
72925;BME280;61070;50.794;7.054;2023-04-09T02:15:46;101720.69;;;6.53;100.00
72925;BME280;61070;50.794;7.054;2023-04-09T02:18:41;101717.25;;;6.57;100.00
72925;BME280;61070;50.794;7.054;2023-04-09T02:21:06;101716.31;;;6.55;100.00
72925;BME280;61070;50.794;7.054;2023-04-09T02:23:31;101710.16;;;6.54;100.00
72925;BME280;61070;50.794;7.054;2023-04-09T02:25:58;101710.16;;;6.54;100.00
72925;BME280;61070;50.794;7.054;2023-04-09T02:28:23;101710.13;;;6.51;100.00
72925;BME280;61070;50.794;7.054;2023-04-09T02:30:48;101708.34;;;6.50;100.00
72925;BME280;61070;50.794;7.054;2023-04-09T02:33:14;101711.88;;;6.52;100.00
72925;BME280;61070;50.794;7.054;2023-04-09T02:35:39;101710.81;;;6.42;100.00
72925;BME280;61070;50.794;7.054;2023-04-09T02:38:04;101709.09;;;6.45;100.00
72925;BME280;61070;50.794;7.054;2023-04-09T02:40:29;101699.31;;;6.37;100.00
72925;BME280;61070;50.794;7.054;2023-04-09T02:42:55;101700.97;;;6.34;100.00
72925;BME280;61070;50.794;7.054;2023-04-09T02:45:21;101693.00;;;6.31;100.00
72925;BME280;61070;50.794;7.054;2023-04-09T02:47:46;101702.69;;;6.32;100.00
72925;BME280;61070;50.794;7.054;2023-04-09T02:50:13;101705.28;;;6.30;100.00
72925;BME280;61070;50.794;7.054;2023-04-09T02:52:38;101696.44;;;6.27;100.00
72925;BME280;61070;50.794;7.054;2023-04-09T02:55:04;101699.13;;;6.30;100.00
72925;BME280;61070;50.794;7.054;2023-04-09T02:57:29;101708.97;;;6.38;100.00
72925;BME280;61070;50.794;7.054;2023-04-09T02:59:54;101701.13;;;6.41;100.00
72925;BME280;61070;50.794;7.054;2023-04-09T03:02:20;101696.72;;;6.40;100.00
72925;BME280;61070;50.794;7.054;2023-04-09T03:04:45;101700.31;;;6.44;100.00
72925;BME280;61070;50.794;7.054;2023-04-09T03:07:10;101695.84;;;6.40;100.00
72925;BME280;61070;50.794;7.054;2023-04-09T03:09:36;101686.03;;;6.33;100.00
72925;BME280;61070;50.794;7.054;2023-04-09T03:12:01;101686.84;;;6.29;100.00
72925;BME280;61070;50.794;7.054;2023-04-09T03:14:27;101686.75;;;6.24;100.00
72925;BME280;61070;50.794;7.054;2023-04-09T03:16:52;101691.91;;;6.21;100.00
72925;BME280;61070;50.794;7.054;2023-04-09T03:19:17;101682.13;;;6.14;100.00
72925;BME280;61070;50.794;7.054;2023-04-09T03:21:43;101674.22;;;6.12;100.00
72925;BME280;61070;50.794;7.054;2023-04-09T03:24:08;101676.59;;;6.02;100.00
72925;BME280;61070;50.794;7.054;2023-04-09T03:26:33;101672.06;;;5.95;100.00
72925;BME280;61070;50.794;7.054;2023-04-09T03:29:02;101673.59;;;5.88;100.00
72925;BME280;61070;50.794;7.054;2023-04-09T03:31:28;101674.47;;;5.87;100.00
72925;BME280;61070;50.794;7.054;2023-04-09T03:33:53;101679.00;;;5.91;100.00
72925;BME280;61070;50.794;7.054;2023-04-09T03:36:18;101679.00;;;5.91;100.00
72925;BME280;61070;50.794;7.054;2023-04-09T03:38:44;101683.38;;;5.91;100.00
72925;BME280;61070;50.794;7.054;2023-04-09T03:41:09;101675.50;;;5.92;100.00
72925;BME280;61070;50.794;7.054;2023-04-09T03:43:34;101678.09;;;5.91;100.00
72925;BME280;61070;50.794;7.054;2023-04-09T03:46:00;101683.44;;;5.94;100.00
72925;BME280;61070;50.794;7.054;2023-04-09T03:48:25;101674.47;;;5.87;100.00
72925;BME280;61070;50.794;7.054;2023-04-09T03:50:50;101674.47;;;5.87;100.00
72925;BME280;61070;50.794;7.054;2023-04-09T03:53:17;101675.31;;;5.86;100.00
72925;BME280;61070;50.794;7.054;2023-04-09T03:55:43;101674.50;;;5.89;100.00
72925;BME280;61070;50.794;7.054;2023-04-09T03:58:08;101678.09;;;5.91;100.00
72925;BME280;61070;50.794;7.054;2023-04-09T04:00:33;101673.78;;;5.93;100.00
72925;BME280;61070;50.794;7.054;2023-04-09T04:02:58;101673.81;;;5.96;100.00
72925;BME280;61070;50.794;7.054;2023-04-09T04:05:24;101671.16;;;5.94;100.00
72925;BME280;61070;50.794;7.054;2023-04-09T04:07:50;101679.09;;;5.96;100.00
72925;BME280;61070;50.794;7.054;2023-04-09T04:10:16;101679.75;;;5.89;100.00
72925;BME280;61070;50.794;7.054;2023-04-09T04:12:41;101676.41;;;5.93;100.00
72925;BME280;61070;50.794;7.054;2023-04-09T04:15:06;101673.78;;;5.93;100.00
72925;BME280;61070;50.794;7.054;2023-04-09T04:17:32;101670.31;;;5.95;100.00
72925;BME280;61070;50.794;7.054;2023-04-09T04:19:57;101672.78;;;5.89;100.00
72925;BME280;61070;50.794;7.054;2023-04-09T04:22:22;101672.88;;;5.92;100.00
72925;BME280;61070;50.794;7.054;2023-04-09T04:24:48;101664.97;;;5.91;100.00
72925;BME280;61070;50.794;7.054;2023-04-09T04:27:13;101669.16;;;5.84;100.00
72925;BME280;61070;50.794;7.054;2023-04-09T04:29:38;101671.84;;;5.87;100.00
72925;BME280;61070;50.794;7.054;2023-04-09T04:32:04;101666.56;;;5.87;100.00
72925;BME280;61070;50.794;7.054;2023-04-09T04:34:29;101663.97;;;5.89;100.00
72925;BME280;61070;50.794;7.054;2023-04-09T04:36:54;101662.28;;;5.89;100.00
72925;BME280;61070;50.794;7.054;2023-04-09T04:39:20;101666.75;;;5.92;100.00
72925;BME280;61070;50.794;7.054;2023-04-09T04:41:45;101664.91;;;5.89;100.00
72925;BME280;61070;50.794;7.054;2023-04-09T04:44:10;101666.56;;;5.87;100.00
72925;BME280;61070;50.794;7.054;2023-04-09T04:46:35;101669.19;;;5.85;100.00
72925;BME280;61070;50.794;7.054;2023-04-09T04:49:01;101675.41;;;5.89;100.00
72925;BME280;61070;50.794;7.054;2023-04-09T04:51:26;101664.84;;;5.88;100.00
72925;BME280;61070;50.794;7.054;2023-04-09T04:53:51;101674.50;;;5.89;100.00
72925;BME280;61070;50.794;7.054;2023-04-09T04:56:17;101668.69;;;6.00;100.00
72925;BME280;61070;50.794;7.054;2023-04-09T04:58:42;101667.47;;;5.88;100.00
72925;BME280;61070;50.794;7.054;2023-04-09T05:01:07;101671.84;;;5.87;100.00
72925;BME280;61070;50.794;7.054;2023-04-09T05:03:33;101670.22;;;5.91;100.00
72925;BME280;61070;50.794;7.054;2023-04-09T05:05:58;101670.09;;;5.88;100.00
72925;BME280;61070;50.794;7.054;2023-04-09T05:08:23;101675.50;;;5.92;100.00
72925;BME280;61070;50.794;7.054;2023-04-09T05:10:49;101676.44;;;5.94;100.00
72925;BME280;61070;50.794;7.054;2023-04-09T05:13:15;101675.56;;;5.95;100.00
72925;BME280;61070;50.794;7.054;2023-04-09T05:15:40;101680.00;;;5.98;100.00
72925;BME280;61070;50.794;7.054;2023-04-09T05:18:06;101675.63;;;5.98;100.00
72925;BME280;61070;50.794;7.054;2023-04-09T05:20:33;101681.91;;;6.03;100.00
72925;BME280;61070;50.794;7.054;2023-04-09T05:22:58;101680.16;;;6.04;100.00
72925;BME280;61070;50.794;7.054;2023-04-09T05:25:24;101683.66;;;6.03;100.00
72925;BME280;61070;50.794;7.054;2023-04-09T05:27:49;101681.03;;;6.04;100.00
72925;BME280;61070;50.794;7.054;2023-04-09T05:30:14;101682.88;;;6.08;100.00
72925;BME280;61070;50.794;7.054;2023-04-09T05:32:40;101684.75;;;6.12;100.00
72925;BME280;61070;50.794;7.054;2023-04-09T05:35:06;101690.88;;;6.13;100.00
72925;BME280;61070;50.794;7.054;2023-04-09T05:37:31;101690.81;;;6.11;100.00
72925;BME280;61070;50.794;7.054;2023-04-09T05:39:56;101692.81;;;6.22;100.00
72925;BME280;61070;50.794;7.054;2023-04-09T05:42:22;101689.50;;;6.30;100.00
72925;BME280;61070;50.794;7.054;2023-04-09T05:44:47;101687.66;;;6.26;100.00
72925;BME280;61070;50.794;7.054;2023-04-09T05:47:12;101693.22;;;6.40;100.00
72925;BME280;61070;50.794;7.054;2023-04-09T05:49:37;101696.66;;;6.36;100.00
72925;BME280;61070;50.794;7.054;2023-04-09T05:52:03;101694.97;;;6.41;100.00
72925;BME280;61070;50.794;7.054;2023-04-09T05:54:30;101696.03;;;6.48;100.00
72925;BME280;61070;50.794;7.054;2023-04-09T05:56:55;101690.88;;;6.54;100.00
72925;BME280;61070;50.794;7.054;2023-04-09T05:59:21;101694.50;;;6.59;100.00
72925;BME280;61070;50.794;7.054;2023-04-09T06:01:46;101693.69;;;6.63;100.00
72925;BME280;61070;50.794;7.054;2023-04-09T06:04:12;101692.84;;;6.65;100.00
72925;BME280;61070;50.794;7.054;2023-04-09T06:06:37;101693.75;;;6.66;100.00
72925;BME280;61070;50.794;7.054;2023-04-09T06:09:03;101694.03;;;6.80;100.00
72925;BME280;61070;50.794;7.054;2023-04-09T06:11:29;101690.66;;;6.87;100.00
72925;BME280;61070;50.794;7.054;2023-04-09T06:13:54;101686.38;;;6.92;100.00
72925;BME280;61070;50.794;7.054;2023-04-09T06:16:20;101691.56;;;6.90;100.00
72925;BME280;61070;50.794;7.054;2023-04-09T06:18:45;101698.56;;;6.88;100.00
72925;BME280;61070;50.794;7.054;2023-04-09T06:21:15;101687.50;;;7.06;99.68
72925;BME280;61070;50.794;7.054;2023-04-09T06:23:40;101692.66;;;7.01;98.72
72925;BME280;61070;50.794;7.054;2023-04-09T06:26:06;101696.16;;;7.00;100.00
72925;BME280;61070;50.794;7.054;2023-04-09T06:28:31;101690.97;;;7.04;99.47
72925;BME280;61070;50.794;7.054;2023-04-09T06:30:57;101688.41;;;7.08;98.28
72925;BME280;61070;50.794;7.054;2023-04-09T06:33:23;101690.00;;;7.00;98.46
72925;BME280;61070;50.794;7.054;2023-04-09T06:35:48;101693.50;;;6.99;98.26
72925;BME280;61070;50.794;7.054;2023-04-09T06:38:14;101701.56;;;7.07;98.89
72925;BME280;61070;50.794;7.054;2023-04-09T06:40:40;101692.94;;;7.15;98.93
72925;BME280;61070;50.794;7.054;2023-04-09T06:43:06;101692.78;;;7.08;97.78
72925;BME280;61070;50.794;7.054;2023-04-09T06:45:31;101700.00;;;7.18;97.82
72925;BME280;61070;50.794;7.054;2023-04-09T06:47:58;101699.38;;;7.31;97.68
72925;BME280;61070;50.794;7.054;2023-04-09T06:50:23;101704.81;;;7.40;96.69
72925;BME280;61070;50.794;7.054;2023-04-09T06:52:50;101697.97;;;7.53;96.48
72925;BME280;61070;50.794;7.054;2023-04-09T06:55:15;101705.00;;;7.51;95.07
72925;BME280;61070;50.794;7.054;2023-04-09T06:57:40;101705.06;;;7.57;96.33
72925;BME280;61070;50.794;7.054;2023-04-09T07:00:06;101700.06;;;7.72;94.41
72925;BME280;61070;50.794;7.054;2023-04-09T07:02:32;101701.88;;;7.76;94.64
72925;BME280;61070;50.794;7.054;2023-04-09T07:04:58;101703.66;;;7.77;92.50
72925;BME280;61070;50.794;7.054;2023-04-09T07:07:23;101706.47;;;7.89;92.66
72925;BME280;61070;50.794;7.054;2023-04-09T07:09:49;101696.78;;;7.88;92.86
72925;BME280;61070;50.794;7.054;2023-04-09T07:12:31;101704.69;;;7.88;93.69
72925;BME280;61070;50.794;7.054;2023-04-09T07:14:58;101702.16;;;7.95;93.23
72925;BME280;61070;50.794;7.054;2023-04-09T07:17:23;101706.63;;;8.00;92.97
72925;BME280;61070;50.794;7.054;2023-04-09T07:19:48;101710.31;;;8.10;92.22
72925;BME280;61070;50.794;7.054;2023-04-09T07:22:15;101706.88;;;8.15;92.49
72925;BME280;61070;50.794;7.054;2023-04-09T07:24:41;101707.00;;;8.26;92.41
72925;BME280;61070;50.794;7.054;2023-04-09T07:27:06;101709.88;;;8.40;91.57
72925;BME280;61070;50.794;7.054;2023-04-09T07:29:31;101713.44;;;8.43;91.57
72925;BME280;61070;50.794;7.054;2023-04-09T07:31:57;101712.69;;;8.54;91.36
72925;BME280;61070;50.794;7.054;2023-04-09T07:34:22;101714.59;;;8.65;89.32
72925;BME280;61070;50.794;7.054;2023-04-09T07:36:47;101714.66;;;8.70;89.41
72925;BME280;61070;50.794;7.054;2023-04-09T07:39:13;101712.91;;;8.72;89.20
72925;BME280;61070;50.794;7.054;2023-04-09T07:41:38;101712.06;;;8.74;89.57
72925;BME280;61070;50.794;7.054;2023-04-09T07:44:03;101707.72;;;8.81;89.26
72925;BME280;61070;50.794;7.054;2023-04-09T07:46:30;101703.41;;;8.85;89.72
72925;BME280;61070;50.794;7.054;2023-04-09T07:48:55;101715.84;;;8.96;89.42
72925;BME280;61070;50.794;7.054;2023-04-09T07:51:20;101719.53;;;9.11;88.23
72925;BME280;61070;50.794;7.054;2023-04-09T07:53:46;101712.59;;;9.22;88.01
72925;BME280;61070;50.794;7.054;2023-04-09T07:56:11;101717.16;;;9.40;87.35
72925;BME280;61070;50.794;7.054;2023-04-09T07:58:36;101712.72;;;9.36;84.27
72925;BME280;61070;50.794;7.054;2023-04-09T08:01:02;101708.31;;;9.38;85.13
72925;BME280;61070;50.794;7.054;2023-04-09T08:03:27;101713.69;;;9.47;86.14
72925;BME280;61070;50.794;7.054;2023-04-09T08:05:53;101715.50;;;9.51;85.51
72925;BME280;61070;50.794;7.054;2023-04-09T08:08:18;101710.28;;;9.61;83.84
72925;BME280;61070;50.794;7.054;2023-04-09T08:10:44;101702.53;;;9.81;83.69
72925;BME280;61070;50.794;7.054;2023-04-09T08:13:09;101711.41;;;9.92;81.72
72925;BME280;61070;50.794;7.054;2023-04-09T08:15:34;101707.97;;;10.01;80.81
72925;BME280;61070;50.794;7.054;2023-04-09T08:18:00;101714.19;;;10.11;79.07
72925;BME280;61070;50.794;7.054;2023-04-09T08:20:27;101711.66;;;10.25;78.98
72925;BME280;61070;50.794;7.054;2023-04-09T08:22:53;101705.53;;;10.32;77.77
72925;BME280;61070;50.794;7.054;2023-04-09T08:25:18;101710.00;;;10.45;78.05
72925;BME280;61070;50.794;7.054;2023-04-09T08:27:44;101715.38;;;10.57;75.21
72925;BME280;61070;50.794;7.054;2023-04-09T08:30:09;101713.56;;;10.53;74.22
72925;BME280;61070;50.794;7.054;2023-04-09T08:32:35;101711.84;;;10.60;74.11
72925;BME280;61070;50.794;7.054;2023-04-09T08:35:00;101709.19;;;10.63;73.99
72925;BME280;61070;50.794;7.054;2023-04-09T08:37:26;101709.25;;;10.70;75.56
72925;BME280;61070;50.794;7.054;2023-04-09T08:39:51;101707.50;;;10.77;74.29
72925;BME280;61070;50.794;7.054;2023-04-09T08:42:18;101704.94;;;11.00;70.68
72925;BME280;61070;50.794;7.054;2023-04-09T08:44:43;101710.25;;;11.17;72.64
72925;BME280;61070;50.794;7.054;2023-04-09T08:47:09;101705.81;;;11.19;74.67
72925;BME280;61070;50.794;7.054;2023-04-09T08:49:37;101707.59;;;11.17;69.12
72925;BME280;61070;50.794;7.054;2023-04-09T08:52:03;101698.75;;;11.21;67.47
72925;BME280;61070;50.794;7.054;2023-04-09T08:54:28;101700.53;;;11.32;68.14
72925;BME280;61070;50.794;7.054;2023-04-09T08:56:53;101710.28;;;11.38;65.50
72925;BME280;61070;50.794;7.054;2023-04-09T08:59:18;101699.69;;;11.49;65.20
72925;BME280;61070;50.794;7.054;2023-04-09T09:01:44;101706.75;;;11.59;62.09
72925;BME280;61070;50.794;7.054;2023-04-09T09:04:12;101695.25;;;11.75;62.29
72925;BME280;61070;50.794;7.054;2023-04-09T09:06:39;101694.38;;;11.98;61.48
72925;BME280;61070;50.794;7.054;2023-04-09T09:09:14;101701.44;;;12.14;60.72
72925;BME280;61070;50.794;7.054;2023-04-09T09:11:45;101698.81;;;11.94;58.45
72925;BME280;61070;50.794;7.054;2023-04-09T09:14:16;101698.78;;;11.99;58.80
72925;BME280;61070;50.794;7.054;2023-04-09T09:16:43;101690.75;;;12.35;58.50
72925;BME280;61070;50.794;7.054;2023-04-09T09:22:04;101691.63;;;12.31;59.01
72925;BME280;61070;50.794;7.054;2023-04-09T09:24:30;101686.31;;;12.37;58.88
72925;BME280;61070;50.794;7.054;2023-04-09T09:26:56;101685.50;;;12.14;57.92
72925;BME280;61070;50.794;7.054;2023-04-09T09:29:23;101689.88;;;12.32;58.54
72925;BME280;61070;50.794;7.054;2023-04-09T09:31:53;101692.50;;;12.47;58.82
72925;BME280;61070;50.794;7.054;2023-04-09T09:34:20;101688.91;;;12.57;58.00
72925;BME280;61070;50.794;7.054;2023-04-09T09:36:48;101688.84;;;12.71;59.44
72925;BME280;61070;50.794;7.054;2023-04-09T09:39:16;101685.28;;;12.72;57.59
72925;BME280;61070;50.794;7.054;2023-04-09T09:41:43;101684.38;;;12.73;58.56
72925;BME280;61070;50.794;7.054;2023-04-09T09:44:10;101678.19;;;12.68;58.41
72925;BME280;61070;50.794;7.054;2023-04-09T09:46:38;101670.16;;;12.81;57.45
72925;BME280;61070;50.794;7.054;2023-04-09T09:49:05;101679.00;;;12.91;57.22
72925;BME280;61070;50.794;7.054;2023-04-09T09:51:32;101668.31;;;12.96;55.26
72925;BME280;61070;50.794;7.054;2023-04-09T09:53:58;101665.75;;;12.76;56.64
72925;BME280;61070;50.794;7.054;2023-04-09T09:56:28;101660.41;;;12.82;55.67
72925;BME280;61070;50.794;7.054;2023-04-09T10:01:32;101661.19;;;12.99;57.03
72925;BME280;61070;50.794;7.054;2023-04-09T10:03:59;101657.50;;;13.23;55.53
72925;BME280;61070;50.794;7.054;2023-04-09T10:06:27;101655.66;;;13.33;57.13
72925;BME280;61070;50.794;7.054;2023-04-09T10:08:56;101660.75;;;13.59;57.69
72925;BME280;61070;50.794;7.054;2023-04-09T10:11:22;101649.38;;;13.43;57.19
72925;BME280;61070;50.794;7.054;2023-04-09T10:13:58;101655.41;;;13.63;56.06
72925;BME280;61070;50.794;7.054;2023-04-09T10:16:25;101653.56;;;13.72;56.25
72925;BME280;61070;50.794;7.054;2023-04-09T10:18:53;101649.84;;;13.88;55.56
72925;BME280;61070;50.794;7.054;2023-04-09T10:21:40;101649.78;;;13.95;54.83
72925;BME280;61070;50.794;7.054;2023-04-09T10:24:07;101649.81;;;13.89;55.21
72925;BME280;61070;50.794;7.054;2023-04-09T10:26:34;101648.63;;;14.19;56.07
72925;BME280;61070;50.794;7.054;2023-04-09T10:29:13;101646.06;;;14.09;52.40
72925;BME280;61070;50.794;7.054;2023-04-09T10:32:03;101645.25;;;14.02;54.71
72925;BME280;61070;50.794;7.054;2023-04-09T10:34:29;101646.63;;;14.37;54.78
72925;BME280;61070;50.794;7.054;2023-04-09T10:36:59;101641.91;;;14.60;51.95
72925;BME280;61070;50.794;7.054;2023-04-09T10:39:31;101636.16;;;14.91;49.84
72925;BME280;61070;50.794;7.054;2023-04-09T10:41:59;101631.06;;;15.32;46.99
72925;BME280;61070;50.794;7.054;2023-04-09T10:44:27;101637.16;;;15.40;47.62
72925;BME280;61070;50.794;7.054;2023-04-09T10:46:55;101632.06;;;15.25;49.87
72925;BME280;61070;50.794;7.054;2023-04-09T10:49:25;101643.34;;;14.85;50.03
72925;BME280;61070;50.794;7.054;2023-04-09T10:52:00;101641.13;;;15.13;51.75
72925;BME280;61070;50.794;7.054;2023-04-09T10:54:46;101632.56;;;14.92;49.41
72925;BME280;61070;50.794;7.054;2023-04-09T10:59:48;101632.75;;;14.79;51.60
72925;BME280;61070;50.794;7.054;2023-04-09T11:05:25;101635.19;;;14.95;49.24
72925;BME280;61070;50.794;7.054;2023-04-09T11:08:06;101628.31;;;14.78;48.42
72925;BME280;61070;50.794;7.054;2023-04-09T11:10:34;101622.88;;;14.86;50.61
72925;BME280;61070;50.794;7.054;2023-04-09T11:13:00;101621.31;;;14.73;49.45
72925;BME280;61070;50.794;7.054;2023-04-09T11:15:26;101610.38;;;14.90;50.12
72925;BME280;61070;50.794;7.054;2023-04-09T11:17:52;101623.59;;;14.99;49.49
72925;BME280;61070;50.794;7.054;2023-04-09T11:20:21;101612.25;;;14.83;48.60
72925;BME280;61070;50.794;7.054;2023-04-09T11:22:52;101616.56;;;14.92;49.78
72925;BME280;61070;50.794;7.054;2023-04-09T11:25:19;101612.25;;;15.38;50.03
72925;BME280;61070;50.794;7.054;2023-04-09T11:27:44;101610.06;;;15.65;49.10
72925;BME280;61070;50.794;7.054;2023-04-09T11:30:10;101606.47;;;15.66;47.87
72925;BME280;61070;50.794;7.054;2023-04-09T11:32:36;101605.25;;;15.33;47.66
72925;BME280;61070;50.794;7.054;2023-04-09T11:35:01;101596.50;;;15.23;48.53
72925;BME280;61070;50.794;7.054;2023-04-09T11:37:27;101598.16;;;15.29;48.49
72925;BME280;61070;50.794;7.054;2023-04-09T11:39:53;101603.56;;;15.26;48.41
72925;BME280;61070;50.794;7.054;2023-04-09T11:42:22;101597.47;;;15.19;49.04
72925;BME280;61070;50.794;7.054;2023-04-09T11:44:49;101603.66;;;15.21;48.76
72925;BME280;61070;50.794;7.054;2023-04-09T11:47:15;101604.22;;;15.41;47.84
72925;BME280;61070;50.794;7.054;2023-04-09T11:49:41;101594.66;;;15.27;45.85
72925;BME280;61070;50.794;7.054;2023-04-09T11:52:09;101594.66;;;15.27;45.50
72925;BME280;61070;50.794;7.054;2023-04-09T11:54:36;101600.47;;;15.50;46.87
72925;BME280;61070;50.794;7.054;2023-04-09T11:57:05;101587.88;;;15.60;46.16
72925;BME280;61070;50.794;7.054;2023-04-09T11:59:31;101585.31;;;15.51;46.14
72925;BME280;61070;50.794;7.054;2023-04-09T12:01:57;101593.88;;;15.20;46.96
72925;BME280;61070;50.794;7.054;2023-04-09T12:04:22;101600.09;;;15.21;47.98
72925;BME280;61070;50.794;7.054;2023-04-09T12:06:48;101595.59;;;15.24;48.08
72925;BME280;61070;50.794;7.054;2023-04-09T12:09:13;101596.19;;;15.40;48.01
72925;BME280;61070;50.794;7.054;2023-04-09T12:11:42;101601.44;;;15.46;46.80
72925;BME280;61070;50.794;7.054;2023-04-09T12:14:12;101596.22;;;15.38;46.61
72925;BME280;61070;50.794;7.054;2023-04-09T12:16:37;101600.69;;;15.38;46.61
72925;BME280;61070;50.794;7.054;2023-04-09T12:19:06;101596.19;;;15.41;46.99
72925;BME280;61070;50.794;7.054;2023-04-09T12:21:51;101601.75;;;15.28;45.62
72925;BME280;61070;50.794;7.054;2023-04-09T12:24:19;101592.13;;;15.19;45.20
72925;BME280;61070;50.794;7.054;2023-04-09T12:26:46;101594.69;;;15.25;46.34
72925;BME280;61070;50.794;7.054;2023-04-09T12:29:16;101587.16;;;15.49;47.69
72925;BME280;61070;50.794;7.054;2023-04-09T12:31:42;101581.03;;;15.43;47.80
72925;BME280;61070;50.794;7.054;2023-04-09T12:34:08;101576.66;;;15.38;48.00
72925;BME280;61070;50.794;7.054;2023-04-09T12:36:34;101580.19;;;15.41;49.41
72925;BME280;61070;50.794;7.054;2023-04-09T12:39:00;101585.72;;;15.28;48.71
72925;BME280;61070;50.794;7.054;2023-04-09T12:41:25;101578.09;;;15.08;47.34
72925;BME280;61070;50.794;7.054;2023-04-09T12:43:51;101579.19;;;14.93;50.21
72925;BME280;61070;50.794;7.054;2023-04-09T12:46:17;101585.41;;;14.95;50.69
72925;BME280;61070;50.794;7.054;2023-04-09T12:48:43;101584.59;;;14.89;49.40
72925;BME280;61070;50.794;7.054;2023-04-09T12:51:08;101587.88;;;15.07;50.71
72925;BME280;61070;50.794;7.054;2023-04-09T12:53:35;101588.81;;;15.03;49.58
72925;BME280;61070;50.794;7.054;2023-04-09T12:56:00;101575.78;;;14.83;50.41
72925;BME280;61070;50.794;7.054;2023-04-09T12:58:26;101580.13;;;14.91;51.50
72925;BME280;61070;50.794;7.054;2023-04-09T13:00:51;101581.75;;;15.01;51.04
72925;BME280;61070;50.794;7.054;2023-04-09T13:03:18;101590.69;;;14.98;49.39
72925;BME280;61070;50.794;7.054;2023-04-09T13:05:44;101578.09;;;15.05;50.33
72925;BME280;61070;50.794;7.054;2023-04-09T13:08:09;101582.50;;;15.09;51.03
72925;BME280;61070;50.794;7.054;2023-04-09T13:10:34;101573.09;;;14.87;49.35